Time;durP1;ratioP1;P1;durP2;ratioP2;P2;SDS_P1;SDS_P2;PMS_P1;PMS_P2;Temp;Humidity;BMP_temperature;BMP_pressure;BME280_temperature;BME280_humidity;BME280_pressure;Samples;Min_cycle;Max_cycle;Signal;HPM_P1;HPM_P2
2022/12/15 00:39:28;;;;;;;18.97;12.10;;;4.30;99.90;;;4.10;72.82;94164.91;5080042;28;20485;-61
2022/12/15 00:41:56;;;;;;;13.57;10.60;;;4.30;99.90;;;4.08;73.36;94164.22;5082634;28;20446;-60
2022/12/15 00:44:23;;;;;;;17.13;13.20;;;4.30;99.90;;;4.03;73.71;94148.13;5075527;28;20493;-59
2022/12/15 00:46:55;;;;;;;16.33;12.00;;;4.30;99.90;;;4.01;73.47;94138.78;5080174;28;20459;-55
2022/12/15 01:22:28;;;;;;;18.60;13.47;;;3.70;99.90;;;3.54;75.80;94110.25;5078960;28;20980;-60
2022/12/15 01:24:55;;;;;;;22.23;14.70;;;3.70;99.90;;;3.57;75.37;94115.22;5077509;28;20554;-55
2022/12/15 01:27:23;;;;;;;15.33;11.30;;;3.80;99.90;;;3.59;75.37;94105.53;5079937;28;20455;-60
2022/12/15 01:29:50;;;;;;;16.13;11.10;;;3.80;99.90;;;3.54;74.90;94082.47;5086082;28;20489;-59
2022/12/15 01:32:17;;;;;;;16.53;12.03;;;3.80;99.90;;;3.58;75.39;94102.13;5082556;28;20458;-60
2022/12/15 01:34:44;;;;;;;16.47;11.10;;;3.80;99.90;;;3.58;75.54;94101.28;5083679;28;20469;-56
2022/12/15 01:37:12;;;;;;;15.73;11.77;;;3.80;99.90;;;3.59;76.10;94102.94;5081272;28;20486;-59
2022/12/15 01:42:25;;;;;;;20.03;11.57;;;3.80;99.90;;;3.61;75.78;94087.22;5082668;28;20934;-59
2022/12/15 01:44:53;;;;;;;14.27;10.40;;;3.80;99.90;;;3.61;76.37;94084.63;5076173;28;20502;-59
2022/12/15 01:47:22;;;;;;;14.90;11.10;;;3.80;99.90;;;3.63;76.12;94087.94;5080719;28;20462;-54
2022/12/15 01:49:49;;;;;;;22.00;12.27;;;3.80;99.90;;;3.64;75.74;94086.97;5081112;28;20470;-55
2022/12/15 01:52:17;;;;;;;26.37;16.50;;;3.90;99.90;;;3.66;75.79;94066.91;5083378;28;20459;-55
2022/12/15 01:54:48;;;;;;;14.60;10.53;;;3.90;99.90;;;3.65;75.38;94057.44;5081255;28;20473;-53
2022/12/15 01:57:18;;;;;;;16.27;11.30;;;3.90;99.90;;;3.66;75.69;94059.09;5076936;28;20485;-60
2022/12/15 01:59:49;;;;;;;14.67;10.10;;;3.90;99.90;;;3.67;75.49;94039.94;5075733;28;20665;-56
2022/12/15 02:02:17;;;;;;;16.17;11.10;;;3.90;99.90;;;3.67;75.71;94037.34;5084849;28;20446;-59
2022/12/15 02:04:45;;;;;;;14.20;10.20;;;3.90;99.90;;;3.66;76.08;94046.91;5082144;28;20475;-53
2022/12/15 02:07:13;;;;;;;11.23;9.13;;;3.90;99.90;;;3.67;75.84;94037.34;5082601;28;20927;-60
2022/12/15 02:09:40;;;;;;;15.40;10.20;;;3.90;99.90;;;3.69;75.92;94066.66;5081695;28;20532;-56
2022/12/15 02:12:15;;;;;;;9.10;8.13;;;3.90;99.90;;;3.72;75.70;94072.44;5081755;28;20461;-54
2022/12/15 02:14:58;;;;;;;14.00;9.70;;;3.90;99.90;;;3.74;76.63;94049.75;5072184;28;20852;-57
2022/12/15 02:17:33;;;;;;;14.03;8.70;;;3.90;99.90;;;3.73;75.94;94021.25;5076805;28;20481;-55
2022/12/15 02:20:35;;;;;;;11.23;8.10;;;4.00;99.90;;;3.71;76.01;94042.19;5072631;28;20555;-55
2022/12/15 02:23:41;;;;;;;10.00;8.10;;;3.90;99.90;;;3.72;76.15;94030.84;5080405;28;20453;-56
2022/12/15 02:26:47;;;;;;;10.13;7.73;;;3.90;99.90;;;3.75;76.12;94032.38;5083267;28;20466;-55
2022/12/15 02:29:43;;;;;;;8.13;6.90;;;3.90;99.90;;;3.74;75.88;94041.94;5083888;28;20458;-61
2022/12/15 02:32:13;;;;;;;10.07;7.70;;;3.90;99.90;;;3.79;76.37;94025.97;5081618;28;20446;-56
2022/12/15 02:34:42;;;;;;;10.90;8.40;;;4.00;99.90;;;3.86;76.08;94042.78;5076471;28;20574;-56
2022/12/15 02:37:13;;;;;;;18.23;11.90;;;4.00;99.90;;;3.92;76.46;94036.28;5082725;28;20490;-63
2022/12/15 02:39:40;;;;;;;11.03;8.23;;;4.10;99.90;;;3.94;76.62;94056.00;5080347;28;20498;-55
2022/12/15 02:42:09;;;;;;;15.80;9.20;;;4.10;99.90;;;3.98;76.38;94045.34;5082588;28;20929;-54
2022/12/15 02:44:39;;;;;;;9.60;8.30;;;4.10;99.90;;;4.01;76.41;94042.50;5075394;28;20469;-53
2022/12/15 02:47:21;;;;;;;10.43;8.27;;;4.20;99.90;;;4.04;75.76;94066.50;5082262;28;20449;-60
2022/12/15 02:50:01;;;;;;;14.10;9.63;;;4.20;99.90;;;4.04;76.29;94081.31;5082971;28;20916;-60
2022/12/15 02:52:39;;;;;;;13.03;8.93;;;4.20;99.90;;;4.08;76.21;94074.91;5079233;28;20465;-60
2022/12/15 02:55:14;;;;;;;13.73;9.07;;;4.20;99.90;;;4.10;75.93;94060.81;5079772;28;20473;-55
2022/12/15 02:57:48;;;;;;;16.30;10.57;;;4.30;99.90;;;4.10;75.49;94067.81;5075121;28;21139;-59
2022/12/15 03:00:15;;;;;;;13.47;9.90;;;4.30;99.90;;;4.10;75.80;94067.81;5077647;28;20494;-55
2022/12/15 03:02:47;;;;;;;13.20;8.80;;;4.30;99.90;;;4.10;75.66;94066.03;5075313;28;20463;-55
2022/12/15 03:05:14;;;;;;;16.20;10.30;;;4.30;99.90;;;4.11;76.02;94079.88;5077927;28;20523;-60
2022/12/15 03:07:42;;;;;;;17.10;11.47;;;4.30;99.90;;;4.13;76.57;94081.41;5082312;28;20595;-56
2022/12/15 03:10:10;;;;;;;17.00;11.50;;;4.30;99.90;;;4.17;76.59;94081.16;5080984;28;20506;-60
2022/12/15 03:12:38;;;;;;;18.73;11.70;;;4.30;99.90;;;4.21;76.19;94077.38;5082375;28;20731;-62
2022/12/15 03:15:06;;;;;;;12.03;9.17;;;4.40;99.90;;;4.23;76.26;94080.69;5079891;28;20896;-57
2022/12/15 03:17:34;;;;;;;12.73;9.27;;;4.40;99.90;;;4.24;76.23;94083.16;5082954;28;20494;-56
2022/12/15 03:20:02;;;;;;;12.87;8.93;;;4.40;99.90;;;4.28;75.89;94079.38;5080330;28;20902;-55
2022/12/15 03:22:30;;;;;;;14.00;8.73;;;4.40;99.90;;;4.30;75.99;94072.25;5079599;28;20458;-59
2022/12/15 03:24:57;;;;;;;12.13;7.50;;;4.50;99.90;;;4.34;75.98;94065.06;5080927;28;21045;-61
2022/12/15 03:27:25;;;;;;;14.13;9.77;;;4.50;99.90;;;4.37;75.96;94083.03;5081957;28;20814;-61
2022/12/15 03:29:52;;;;;;;9.53;7.53;;;4.50;99.90;;;4.38;75.60;94070.84;5076681;28;20486;-61
2022/12/15 03:32:19;;;;;;;10.73;8.67;;;4.60;99.90;;;4.41;75.85;94070.59;5077413;28;21049;-55
2022/12/15 03:34:46;;;;;;;12.07;8.00;;;4.60;99.90;;;4.44;75.60;94070.34;5081888;28;20526;-57
2022/12/15 03:37:15;;;;;;;7.70;6.93;;;4.60;99.90;;;4.47;75.69;94067.50;5080172;28;20487;-55
2022/12/15 03:39:42;;;;;;;9.87;7.23;;;4.60;99.90;;;4.51;75.63;94068.06;5080810;28;20471;-59
2022/12/15 03:42:10;;;;;;;12.17;7.77;;;4.60;99.90;;;4.53;75.33;94076.59;5084405;28;20461;-55
2022/12/15 03:44:37;;;;;;;10.80;6.90;;;4.70;99.90;;;4.55;75.48;94085.13;5075251;28;20478;-55
2022/12/15 03:47:05;;;;;;;13.80;7.70;;;4.70;99.90;;;4.56;75.35;94077.19;5068825;28;20855;-59
2022/12/15 03:49:33;;;;;;;11.23;7.83;;;4.70;99.90;;;4.59;75.26;94099.56;5074384;28;21074;-55
2022/12/15 03:52:00;;;;;;;12.00;8.30;;;4.80;99.90;;;4.61;74.98;94101.06;5076749;28;20451;-54
2022/12/15 03:54:29;;;;;;;12.60;8.80;;;4.80;99.90;;;4.62;75.37;94089.72;5083443;28;20853;-53
2022/12/15 03:56:56;;;;;;;12.73;8.67;;;4.80;99.90;;;4.61;75.34;94100.25;5076859;28;20459;-55
2022/12/15 03:59:23;;;;;;;11.57;8.07;;;4.80;99.90;;;4.61;75.19;94100.25;5077883;28;20466;-63
2022/12/15 04:01:50;;;;;;;8.63;7.73;;;4.80;99.90;;;4.61;75.29;94110.66;5076303;28;20532;-60
2022/12/15 04:04:18;;;;;;;11.20;8.67;;;4.80;99.90;;;4.62;75.34;94107.94;5078974;28;20500;-59
2022/12/15 04:06:45;;;;;;;8.60;7.30;;;4.80;99.90;;;4.64;75.14;94100.00;5079089;28;20470;-60
2022/12/15 04:09:12;;;;;;;9.43;7.67;;;4.80;99.90;;;4.65;75.43;94091.25;5077998;28;20474;-60
2022/12/15 04:11:41;;;;;;;15.33;7.60;;;4.80;99.90;;;4.66;75.45;94111.97;5077108;28;20455;-54
2022/12/15 04:14:10;;;;;;;8.13;7.20;;;4.80;99.90;;;4.68;75.14;94106.63;5072535;28;20454;-52
2022/12/15 04:16:37;;;;;;;15.03;7.87;;;4.90;99.90;;;4.67;75.00;94108.38;5071172;28;20532;-55
2022/12/15 04:21:48;;;;;;;10.50;7.67;;;4.90;99.90;;;4.70;74.93;94122.13;5077475;28;20453;-60
2022/12/15 05:33:05;;;;;;;5.73;4.90;;;5.20;99.90;;;4.93;74.21;94225.34;5074583;28;20446;-60
2022/12/15 05:35:32;;;;;;;6.27;5.33;;;5.10;99.90;;;4.89;74.25;94231.72;5072971;28;20489;-54
2022/12/15 05:37:59;;;;;;;5.73;5.13;;;5.10;99.90;;;4.88;74.50;94230.09;5080844;28;20581;-55
2022/12/15 05:40:27;;;;;;;6.00;5.40;;;5.00;99.90;;;4.89;74.35;94252.56;5075264;28;20482;-60
2022/12/15 05:42:55;;;;;;;5.70;5.13;;;5.00;99.90;;;4.91;74.40;94255.91;5077860;28;20446;-59
2022/12/15 05:45:23;;;;;;;5.73;5.20;;;5.10;99.90;;;4.92;74.23;94257.53;5064725;28;20471;-61
2022/12/15 05:47:51;;;;;;;5.83;5.33;;;5.00;99.90;;;4.91;74.68;94253.31;5073230;28;20965;-61
2022/12/15 05:50:20;;;;;;;9.10;6.07;;;5.10;99.90;;;4.94;74.26;94279.13;5068615;28;20475;-55
2022/12/15 05:52:48;;;;;;;7.97;5.27;;;5.10;99.90;;;4.95;74.51;94287.75;5079476;28;20515;-55
2022/12/15 05:55:16;;;;;;;9.30;7.30;;;5.10;99.90;;;4.96;74.69;94292.84;5070076;28;20926;-55
2022/12/15 05:57:43;;;;;;;15.50;7.00;;;5.10;99.90;;;4.99;74.63;94297.81;5083735;28;20492;-54
2022/12/15 06:00:11;;;;;;;11.03;7.50;;;5.10;99.90;;;5.00;74.63;94296.88;5075825;28;21014;-61
2022/12/15 06:02:39;;;;;;;6.70;6.00;;;5.20;99.90;;;5.02;74.15;94299.38;5076216;28;20461;-63
2022/12/15 06:05:08;;;;;;;8.70;5.90;;;5.20;99.90;;;5.03;74.18;94306.22;5069850;28;20482;-61
2022/12/15 06:07:37;;;;;;;7.80;6.47;;;5.20;99.90;;;5.04;74.30;94300.06;5076958;28;20961;-54
2022/12/15 06:10:05;;;;;;;6.63;5.93;;;5.20;99.90;;;5.05;74.00;94309.56;5071703;28;21018;-60
2022/12/15 06:12:32;;;;;;;8.37;6.20;;;5.20;99.90;;;5.05;74.09;94306.94;5073926;28;20474;-55
2022/12/15 06:15:00;;;;;;;9.17;7.40;;;5.20;99.90;;;5.06;74.10;94312.97;5072415;28;20474;-55
2022/12/15 06:17:27;;;;;;;10.47;7.90;;;5.20;99.90;;;5.07;74.02;94325.06;5081087;28;20534;-56
2022/12/15 06:19:54;;;;;;;12.50;8.60;;;5.20;99.90;;;5.10;74.09;94332.66;5075253;28;20474;-61
2022/12/15 06:22:22;;;;;;;11.20;8.87;;;5.20;99.90;;;5.12;74.03;94335.97;5079148;28;20596;-61
2022/12/15 06:24:51;;;;;;;11.40;10.00;;;5.30;99.90;;;5.15;73.93;94327.91;5083940;28;20467;-52
2022/12/15 06:27:18;;;;;;;11.07;8.30;;;5.30;99.90;;;5.17;74.04;94321.63;5076111;28;20462;-53
2022/12/15 06:29:46;;;;;;;9.10;7.47;;;5.30;99.90;;;5.21;74.14;94325.63;5077418;28;20486;-54
2022/12/15 06:32:13;;;;;;;10.73;7.50;;;5.30;99.90;;;5.26;74.17;94340.91;5074744;28;20871;-61
2022/12/15 06:34:40;;;;;;;14.53;8.30;;;5.40;99.90;;;5.30;74.31;94338.88;5075616;28;20471;-61
2022/12/15 06:37:08;;;;;;;10.80;8.87;;;5.40;99.90;;;5.32;73.76;94340.41;5078869;28;20451;-67
2022/12/15 06:39:35;;;;;;;12.00;7.80;;;5.50;99.90;;;5.36;74.03;94331.41;5081404;28;20502;-61
2022/12/15 06:42:04;;;;;;;11.67;7.80;;;5.50;99.90;;;5.40;73.88;94339.81;5084149;28;21015;-62
2022/12/15 06:44:31;;;;;;;13.10;9.70;;;5.50;99.90;;;5.45;73.91;94345.50;5084825;28;20882;-54
2022/12/15 06:46:59;;;;;;;12.67;9.20;;;5.60;99.90;;;5.48;73.96;94357.47;5081017;28;20496;-63
2022/12/15 06:49:26;;;;;;;16.60;10.30;;;5.60;99.90;;;5.52;73.65;94351.06;5083708;28;20488;-57
2022/12/15 06:51:53;;;;;;;16.77;9.87;;;5.70;99.90;;;5.55;73.85;94348.22;5080631;28;20474;-54
2022/12/15 06:54:21;;;;;;;15.10;8.60;;;5.70;99.90;;;5.61;73.87;94352.09;5084441;28;21006;-54
2022/12/15 06:56:48;;;;;;;16.50;9.50;;;5.70;99.90;;;5.63;73.48;94368.47;5078361;28;20458;-55
2022/12/15 06:59:16;;;;;;;11.23;8.80;;;5.80;99.90;;;5.67;73.39;94365.50;5081982;28;20482;-63
2022/12/15 07:01:44;;;;;;;12.83;7.93;;;5.80;99.90;;;5.70;73.38;94365.25;5079319;28;20982;-56
2022/12/15 07:04:11;;;;;;;13.73;6.67;;;5.80;99.90;;;5.74;73.68;94373.66;5083730;28;20446;-54
2022/12/15 07:06:39;;;;;;;7.30;5.97;;;5.80;99.90;;;5.79;73.53;94375.91;5080435;28;20848;-64
2022/12/15 07:09:09;;;;;;;7.00;5.77;;;5.90;99.90;;;5.86;73.39;94387.50;5082272;28;20859;-62
2022/12/15 07:11:36;;;;;;;10.90;7.07;;;6.00;99.90;;;5.94;73.16;94377.28;5082598;28;20537;-62
2022/12/15 07:14:03;;;;;;;12.13;7.47;;;6.10;99.90;;;6.05;73.09;94379.88;5077844;28;20462;-62
2022/12/15 07:16:32;;;;;;;7.47;5.70;;;6.20;99.90;;;6.14;74.14;94380.09;5082135;28;20564;-63
2022/12/15 07:19:00;;;;;;;7.57;6.07;;;6.30;99.90;;;6.26;74.62;94392.16;5080172;28;20497;-64
2022/12/15 07:21:27;;;;;;;7.37;6.57;;;6.40;99.90;;;6.45;74.64;94388.84;5083295;28;20527;-62
2022/12/15 07:23:54;;;;;;;8.40;7.27;;;6.50;99.90;;;6.61;73.99;94397.06;5078869;28;20461;-57
2022/12/15 07:26:21;;;;;;;12.93;7.47;;;6.70;99.90;;;6.73;72.71;94403.06;5078987;28;20873;-56
2022/12/15 07:28:49;;;;;;;11.60;6.90;;;6.80;99.90;;;6.83;72.34;94410.94;5071778;28;20524;-57
2022/12/15 07:31:16;;;;;;;12.27;7.67;;;6.90;99.90;;;6.90;72.20;94411.28;5077792;28;20474;-56
2022/12/15 07:33:47;;;;;;;10.77;7.63;;;7.00;99.90;;;6.93;72.38;94406.63;5071433;28;20450;-54
2022/12/15 07:36:14;;;;;;;14.90;7.57;;;7.00;99.90;;;7.00;72.12;94407.75;5074082;28;20545;-55
2022/12/15 07:38:41;;;;;;;11.67;7.93;;;7.10;99.90;;;7.06;71.97;94418.66;5078846;28;21031;-55
2022/12/15 07:41:10;;;;;;;12.67;7.10;;;7.20;99.90;;;7.09;71.69;94415.78;5078801;28;20482;-62
2022/12/15 07:43:37;;;;;;;13.23;8.13;;;7.20;99.90;;;7.14;72.14;94424.06;5082610;28;20950;-64
2022/12/15 07:46:05;;;;;;;9.40;7.37;;;7.20;99.90;;;7.21;71.81;94416.53;5076545;28;20995;-64
2022/12/15 07:48:32;;;;;;;10.10;7.33;;;7.30;99.90;;;7.28;71.41;94425.50;5075598;28;20450;-56
2022/12/15 07:51:05;;;;;;;26.57;17.07;;;7.30;99.90;;;7.34;71.25;94424.97;5077391;28;21079;-56
2022/12/15 07:53:33;;;;;;;48.97;20.90;;;7.40;99.90;;;7.38;71.98;94429.00;5078323;28;20453;-56
2022/12/15 07:56:00;;;;;;;36.33;16.63;;;7.50;99.90;;;7.39;71.25;94438.50;5076718;28;20485;-56
2022/12/15 07:58:28;;;;;;;11.43;7.83;;;7.50;99.90;;;7.40;71.27;94449.78;5075010;28;20490;-63
2022/12/15 08:00:59;;;;;;;16.13;9.37;;;7.50;99.90;;;7.39;70.99;94454.22;5079205;28;20498;-57
2022/12/15 08:03:26;;;;;;;20.70;13.00;;;7.50;99.90;;;7.34;71.00;94451.97;5072969;28;20480;-57
2022/12/15 08:05:53;;;;;;;38.13;15.83;;;7.50;99.90;;;7.32;71.03;94453.88;5074236;28;20509;-56
2022/12/15 08:08:22;;;;;;;16.27;8.00;;;7.50;99.90;;;7.29;70.49;94448.09;5075709;28;20522;-56
2022/12/15 08:10:49;;;;;;;31.00;8.60;;;7.40;99.90;;;7.25;70.40;94438.84;5073398;28;20471;-56
2022/12/15 08:13:17;;;;;;;14.73;6.90;;;7.40;99.90;;;7.16;69.49;94441.28;5075150;28;20450;-57
2022/12/15 08:15:45;;;;;;;23.70;8.40;;;7.30;99.90;;;7.08;70.02;94441.09;5073589;28;20474;-64
2022/12/15 08:18:12;;;;;;;16.00;7.70;;;7.20;99.90;;;6.97;70.21;94447.25;5074730;28;20494;-62
2022/12/15 08:20:39;;;;;;;27.13;9.60;;;7.10;99.90;;;6.90;69.68;94459.16;5074317;28;20496;-62
2022/12/15 08:23:08;;;;;;;25.30;8.97;;;7.00;99.90;;;6.86;70.03;94468.19;5074285;28;20459;-64
2022/12/15 08:25:36;;;;;;;25.67;10.20;;;7.00;99.90;;;6.86;70.59;94473.44;5074629;28;20457;-60
2022/12/15 08:28:04;;;;;;;18.10;8.83;;;7.00;99.90;;;6.89;71.25;94478.41;5073789;28;20447;-61
2022/12/15 08:30:33;;;;;;;19.40;8.60;;;7.00;99.90;;;6.95;71.17;94477.06;5073807;28;20477;-56
2022/12/15 08:33:00;;;;;;;14.17;8.60;;;7.00;99.90;;;7.05;71.52;94484.97;5074236;28;20458;-64
2022/12/15 08:35:27;;;;;;;20.17;8.67;;;7.10;99.90;;;7.18;71.51;94485.63;5074277;28;20504;-62
2022/12/15 08:37:55;;;;;;;13.27;8.30;;;7.20;99.90;;;7.30;72.05;94487.19;5069296;28;20451;-62
2022/12/15 08:40:22;;;;;;;21.93;8.00;;;7.30;99.90;;;7.51;71.72;94486.31;5072025;28;20519;-55
2022/12/15 08:42:51;;;;;;;19.37;6.20;;;7.50;99.90;;;7.71;70.61;94489.84;5072867;28;20449;-61
2022/12/15 08:45:18;;;;;;;12.57;7.93;;;7.70;99.90;;;7.88;70.74;94481.41;5077826;28;20470;-62
2022/12/15 08:47:45;;;;;;;18.77;8.40;;;7.90;99.90;;;8.07;70.71;94488.47;5078475;28;20922;-56
2022/12/15 08:50:13;;;;;;;18.57;8.40;;;8.10;99.90;;;8.26;69.30;94490.31;5078572;28;20473;-55
2022/12/15 08:52:41;;;;;;;13.07;9.63;;;8.20;99.90;;;8.43;69.67;94501.09;5078525;28;20512;-63
2022/12/15 08:55:11;;;;;;;12.20;8.47;;;8.40;99.90;;;8.62;69.46;94497.69;5078672;28;20474;-54
2022/12/15 08:57:39;;;;;;;10.73;8.13;;;8.60;99.90;;;8.83;68.74;94492.31;5081696;28;21053;-57
2022/12/15 09:00:10;;;;;;;16.90;10.03;;;8.80;99.90;;;8.99;68.15;94494.38;5075656;28;20551;-65
2022/12/15 09:02:37;;;;;;;17.50;9.23;;;9.00;99.90;;;9.21;67.86;94488.00;5079207;28;20946;-62
2022/12/15 09:05:06;;;;;;;21.30;14.07;;;9.10;99.90;;;9.37;67.60;94483.94;5079363;28;20472;-61
2022/12/15 09:07:34;;;;;;;49.83;18.57;;;9.40;99.90;;;9.67;67.34;94486.34;5079449;28;20537;-56
2022/12/15 09:10:01;;;;;;;30.93;19.57;;;9.60;99.90;;;9.86;66.08;94490.69;5080827;28;20719;-56
2022/12/15 09:12:28;;;;;;;38.63;22.90;;;9.80;99.90;;;9.92;66.13;94484.03;5078300;28;20466;-54
2022/12/15 09:14:56;;;;;;;41.50;22.73;;;9.90;99.90;;;10.03;65.64;94477.78;5080561;28;20466;-63
2022/12/15 09:17:24;;;;;;;44.57;24.37;;;10.00;99.90;;;10.09;65.43;94479.00;5077512;28;20454;-64
2022/12/15 09:19:52;;;;;;;42.43;22.80;;;10.10;99.90;;;10.09;65.00;94481.63;5080875;28;20711;-62
2022/12/15 09:22:20;;;;;;;61.30;21.27;;;10.10;99.90;;;10.04;64.60;94482.88;5077847;28;20913;-62
2022/12/15 09:24:48;;;;;;;41.03;23.80;;;10.10;99.90;;;9.96;64.61;94481.94;5083511;28;20473;-62
2022/12/15 09:27:15;;;;;;;51.67;26.03;;;10.00;99.90;;;9.90;64.66;94496.50;5078124;28;20447;-54
2022/12/15 09:29:43;;;;;;;46.93;25.70;;;9.90;99.90;;;9.86;65.10;94489.88;5081278;28;20862;-56
2022/12/15 09:32:10;;;;;;;40.30;27.00;;;9.90;99.90;;;9.80;65.26;94501.78;5077818;28;20463;-62
2022/12/15 09:34:39;;;;;;;47.07;28.10;;;9.90;99.90;;;9.72;65.42;94493.78;5081662;28;21077;-62
2022/12/15 09:37:06;;;;;;;48.00;28.90;;;9.80;99.90;;;9.60;65.07;94501.00;5078014;28;20446;-56
2022/12/15 09:39:33;;;;;;;62.23;30.40;;;9.70;99.90;;;9.53;65.59;94510.44;5076592;28;20933;-56
2022/12/15 09:42:01;;;;;;;45.93;26.70;;;9.60;99.90;;;9.47;65.84;94500.50;5077927;28;20807;-56
2022/12/15 09:44:29;;;;;;;48.70;27.50;;;9.50;99.90;;;9.41;65.87;94501.91;5075692;28;20473;-59
2022/12/15 09:47:14;;;;;;;50.20;29.87;;;9.50;99.90;;;9.34;65.90;94495.56;5077499;28;20503;-63
2022/12/15 09:49:54;;;;;;;48.73;27.33;;;9.40;99.90;;;9.28;66.10;94494.34;5077345;28;20496;-62
2022/12/15 09:52:26;;;;;;;49.83;27.30;;;9.40;99.90;;;9.23;66.21;94493.91;5083066;28;20909;-62
2022/12/15 09:54:53;;;;;;;45.97;27.20;;;9.30;99.90;;;9.15;65.94;94506.91;5082044;28;20985;-62
2022/12/15 09:57:30;;;;;;;44.70;24.47;;;9.20;99.90;;;9.05;65.70;94501.69;5080206;28;20474;-62
2022/12/15 10:00:13;;;;;;;36.83;24.60;;;9.10;99.90;;;8.91;66.31;94499.50;5079815;28;20494;-61
2022/12/15 10:03:21;;;;;;;45.10;24.13;;;9.00;99.90;;;8.84;66.39;94496.59;5074663;28;20450;-62
2022/12/15 10:06:10;;;;;;;45.23;24.70;;;8.90;99.90;;;8.77;66.13;94487.63;5081987;28;20461;-56
2022/12/15 10:08:40;;;;;;;43.90;23.73;;;8.90;99.90;;;8.68;66.26;94491.09;5083425;28;20965;-57
2022/12/15 10:11:20;;;;;;;44.00;25.70;;;8.80;99.90;;;8.59;66.23;94490.91;5080783;28;20532;-63
2022/12/15 10:13:52;;;;;;;51.97;28.00;;;8.70;99.90;;;8.53;66.62;94491.47;5077271;28;20532;-63
2022/12/15 10:16:25;;;;;;;61.50;32.13;;;8.60;99.90;;;8.46;66.51;94500.84;5080797;28;20531;-62
2022/12/15 10:19:05;;;;;;;58.37;31.60;;;8.50;99.90;;;8.48;66.97;94493.69;5084318;28;20967;-54
2022/12/15 10:21:34;;;;;;;49.43;28.00;;;8.50;99.90;;;8.56;66.65;94506.09;5076965;28;20442;-62
2022/12/15 10:24:17;;;;;;;45.00;28.13;;;8.60;99.90;;;8.61;66.67;94507.34;5084833;28;20810;-57
2022/12/15 10:26:57;;;;;;;44.53;26.80;;;8.60;99.90;;;8.73;66.82;94504.59;5077288;28;20512;-59
2022/12/15 10:29:32;;;;;;;48.40;30.67;;;8.70;99.90;;;8.84;66.00;94503.63;5078947;28;20478;-57
2022/12/15 10:32:03;;;;;;;50.43;30.07;;;8.80;99.90;;;9.00;65.91;94505.69;5070556;28;21028;-62
2022/12/15 10:34:33;;;;;;;48.50;29.37;;;9.00;99.90;;;9.21;65.92;94511.59;5078699;28;21016;-62
2022/12/15 10:37:02;;;;;;;56.10;32.87;;;9.20;99.90;;;9.54;66.13;94512.09;5074133;28;20459;-56
2022/12/15 10:39:38;;;;;;;50.57;31.07;;;9.50;99.90;;;9.88;65.28;94516.81;5078661;28;20580;-61
2022/12/15 10:42:19;;;;;;;61.33;31.40;;;9.70;99.90;;;10.07;63.88;94515.06;5076987;28;20901;-63
2022/12/15 10:44:48;;;;;;;54.23;32.73;;;9.90;99.90;;;10.06;63.20;94516.88;5076239;28;20477;-57
2022/12/15 10:47:20;;;;;;;53.10;33.27;;;10.00;99.90;;;10.02;63.67;94510.25;5081711;28;20469;-66
2022/12/15 10:49:48;;;;;;;61.70;35.17;;;10.00;99.90;;;10.00;63.85;94515.66;5074448;28;20502;-56
2022/12/15 10:52:23;;;;;;;54.80;32.07;;;10.00;99.90;;;9.98;63.44;94511.53;5083762;28;20454;-62
2022/12/15 10:54:51;;;;;;;61.67;32.73;;;10.00;99.90;;;10.01;64.04;94509.44;5080290;28;20505;-57
2022/12/15 10:57:26;;;;;;;65.67;33.33;;;10.00;99.90;;;10.09;63.91;94500.81;5084923;28;20451;-56
2022/12/15 10:59:53;;;;;;;48.03;31.90;;;10.10;99.90;;;10.29;63.55;94500.75;5080212;28;20829;-57
2022/12/15 11:02:34;;;;;;;56.40;31.30;;;10.20;99.90;;;10.50;63.56;94521.53;5082601;28;20449;-56
2022/12/15 11:05:04;;;;;;;51.87;33.57;;;10.40;99.90;;;10.65;62.80;94527.94;5082743;28;20473;-57
2022/12/15 11:07:40;;;;;;;46.83;30.23;;;10.60;99.80;;;10.73;62.35;94520.09;5081210;28;20477;-56
2022/12/15 11:10:20;;;;;;;56.10;30.97;;;10.70;99.40;;;10.73;62.25;94511.41;5084153;28;20557;-61
2022/12/15 11:12:56;;;;;;;50.53;30.57;;;10.70;99.20;;;10.66;62.43;94516.44;5081342;28;20446;-55
2022/12/15 11:15:46;;;;;;;50.97;31.00;;;10.70;99.30;;;10.58;62.33;94511.06;5075831;28;20469;-55
2022/12/15 11:18:30;;;;;;;44.17;29.27;;;10.60;99.20;;;10.50;62.74;94513.63;5082191;28;20507;-57
2022/12/15 11:21:02;;;;;;;48.33;27.50;;;10.60;99.30;;;10.43;62.97;94504.69;5076872;28;20558;-61
2022/12/15 11:23:45;;;;;;;42.07;27.30;;;10.50;99.40;;;10.31;62.98;94510.09;5079948;28;20442;-62
2022/12/15 11:26:23;;;;;;;44.30;28.47;;;10.40;99.40;;;10.22;63.69;94517.09;5082983;28;20523;-56
2022/12/15 11:28:54;;;;;;;48.23;29.17;;;10.30;99.80;;;10.18;63.70;94507.03;5075213;28;20478;-62
2022/12/15 11:31:26;;;;;;;52.23;31.60;;;10.20;99.80;;;10.14;63.69;94506.47;5081835;28;20474;-55
2022/12/15 11:33:53;;;;;;;55.23;32.83;;;10.20;99.80;;;10.10;63.69;94518.25;5076277;28;20439;-54
2022/12/15 11:36:33;;;;;;;59.10;34.30;;;10.20;99.80;;;10.07;63.80;94522.97;5079025;28;20495;-57
2022/12/15 11:39:04;;;;;;;63.80;33.90;;;10.10;99.80;;;10.03;63.67;94525.88;5075242;28;20526;-62
2022/12/15 11:41:36;;;;;;;63.03;35.00;;;10.10;99.90;;;9.99;64.09;94532.41;5080310;28;20450;-56
2022/12/15 11:44:18;;;;;;;49.30;31.50;;;10.00;99.90;;;9.94;64.29;94529.38;5074487;28;20443;-62
2022/12/15 11:46:50;;;;;;;47.70;30.20;;;10.00;99.90;;;9.93;64.20;94521.63;5079087;28;20454;-56
2022/12/15 11:50:03;;;;;;;50.00;30.93;;;10.00;99.90;;;9.94;64.12;94524.13;5078324;28;20848;-62
2022/12/15 11:53:13;;;;;;;48.10;29.60;;;10.00;99.90;;;10.04;64.27;94529.34;5081757;28;20442;-56
2022/12/15 11:55:48;;;;;;;43.10;27.40;;;10.00;99.90;;;10.17;64.01;94529.81;5038999;28;20472;-56
2022/12/15 11:58:55;;;;;;;48.03;28.90;;;10.10;99.90;;;10.27;63.46;94527.16;5040428;28;20453;-55
2022/12/15 12:01:38;;;;;;;42.70;26.07;;;10.20;99.90;;;10.32;63.94;94530.19;5042036;28;20851;-57
2022/12/15 12:04:12;;;;;;;51.83;27.40;;;10.30;99.90;;;10.37;63.30;94535.03;5079298;28;20446;-57
2022/12/15 12:06:43;;;;;;;48.50;28.07;;;10.40;99.90;;;10.43;63.42;94528.38;5080391;28;20533;-55
2022/12/15 12:09:35;;;;;;;52.53;24.53;;;10.40;99.90;;;10.47;63.16;94538.44;5079750;28;20519;-58
2022/12/15 12:12:13;;;;;;;39.80;24.53;;;10.50;99.70;;;10.54;63.13;94547.38;5080815;28;20938;-57
2022/12/15 12:14:55;;;;;;;39.60;25.07;;;10.50;99.70;;;10.61;62.94;94552.03;5081352;28;20535;-56
2022/12/15 12:17:31;;;;;;;41.03;26.00;;;10.60;99.50;;;10.66;62.83;94550.63;5072785;28;20462;-56
2022/12/15 12:19:59;;;;;;;37.83;24.43;;;10.60;99.40;;;10.68;62.82;94553.94;5082313;28;21037;-61
2022/12/15 12:22:28;;;;;;;43.17;25.60;;;10.70;99.30;;;10.69;62.78;94545.06;5078615;28;20457;-56
2022/12/15 12:24:58;;;;;;;45.97;24.73;;;10.70;99.20;;;10.74;62.49;94553.34;5086596;28;20462;-57
2022/12/15 12:27:33;;;;;;;42.80;25.90;;;10.70;99.10;;;10.79;62.74;94550.25;5078597;28;20450;-56
2022/12/15 12:30:04;;;;;;;43.43;25.83;;;10.80;99.40;;;10.88;62.47;94557.25;5078695;28;20489;-57
2022/12/15 12:32:40;;;;;;;40.47;26.00;;;10.80;99.20;;;10.96;62.49;94567.03;5079126;28;20460;-61
2022/12/15 12:35:12;;;;;;;39.43;23.23;;;10.90;99.10;;;10.99;62.43;94569.38;5079270;28;21005;-62
2022/12/15 12:37:42;;;;;;;33.17;23.57;;;10.90;99.10;;;11.02;62.00;94576.97;5081434;28;20996;-61
2022/12/15 12:40:18;;;;;;;38.00;21.73;;;11.00;98.80;;;11.02;61.69;94565.63;5074849;28;20867;-63
2022/12/15 12:42:52;;;;;;;31.53;20.60;;;11.00;98.50;;;10.97;61.57;94568.72;5077156;28;20446;-61
2022/12/15 12:45:19;;;;;;;32.80;20.20;;;11.00;98.30;;;10.90;61.42;94570.28;5078437;28;20553;-57
2022/12/15 12:47:49;;;;;;;40.00;20.90;;;10.90;98.10;;;10.85;61.57;94575.97;5075888;28;20462;-57
2022/12/15 12:50:19;;;;;;;38.27;22.87;;;10.90;98.30;;;10.79;61.48;94573.94;5078327;28;20550;-62
2022/12/15 12:52:49;;;;;;;36.20;22.60;;;10.80;98.20;;;10.73;61.97;94577.16;5079627;28;20442;-57
2022/12/15 12:55:29;;;;;;;35.20;22.80;;;10.80;98.40;;;10.67;62.07;94578.56;5080931;28;20523;-57
2022/12/15 12:57:57;;;;;;;64.43;25.60;;;10.70;98.60;;;10.62;62.53;94572.94;5073809;28;20447;-61
2022/12/15 13:00:26;;;;;;;32.40;21.53;;;10.60;98.90;;;10.61;62.59;94579.16;5079126;28;20877;-55
2022/12/15 13:03:16;;;;;;;31.40;20.93;;;10.60;98.80;;;10.57;62.02;94580.44;5078614;28;20451;-61